sensor_id;sensor_type;location;lat;lon;timestamp;P1;durP1;ratioP1;P2;durP2;ratioP2
78908;SDS011;68298;37.368;127.108;2023-03-14T00:01:35;8.43;;;2.17;;
78908;SDS011;68298;37.368;127.108;2023-03-14T00:04:05;7.55;;;3.00;;
78908;SDS011;68298;37.368;127.108;2023-03-14T00:06:36;9.13;;;3.25;;
78908;SDS011;68298;37.368;127.108;2023-03-14T00:09:06;11.00;;;2.80;;
78908;SDS011;68298;37.368;127.108;2023-03-14T00:11:37;8.77;;;3.03;;
78908;SDS011;68298;37.368;127.108;2023-03-14T00:14:08;18.15;;;3.45;;
78908;SDS011;68298;37.368;127.108;2023-03-14T00:16:39;11.23;;;3.50;;
78908;SDS011;68298;37.368;127.108;2023-03-14T00:19:10;25.30;;;4.72;;
78908;SDS011;68298;37.368;127.108;2023-03-14T00:21:40;19.55;;;3.60;;
78908;SDS011;68298;37.368;127.108;2023-03-14T00:24:11;14.73;;;3.70;;
78908;SDS011;68298;37.368;127.108;2023-03-14T00:26:42;8.38;;;3.45;;
78908;SDS011;68298;37.368;127.108;2023-03-14T00:29:13;12.27;;;3.67;;
78908;SDS011;68298;37.368;127.108;2023-03-14T00:31:44;10.23;;;4.15;;
78908;SDS011;68298;37.368;127.108;2023-03-14T00:34:15;8.63;;;3.20;;
78908;SDS011;68298;37.368;127.108;2023-03-14T00:36:49;11.15;;;4.07;;
78908;SDS011;68298;37.368;127.108;2023-03-14T00:39:19;10.35;;;3.95;;
78908;SDS011;68298;37.368;127.108;2023-03-14T00:41:50;10.68;;;3.80;;
78908;SDS011;68298;37.368;127.108;2023-03-14T00:44:21;9.10;;;3.13;;
78908;SDS011;68298;37.368;127.108;2023-03-14T00:46:52;14.55;;;3.22;;
78908;SDS011;68298;37.368;127.108;2023-03-14T00:49:24;11.60;;;3.43;;
78908;SDS011;68298;37.368;127.108;2023-03-14T00:51:55;5.70;;;3.30;;
78908;SDS011;68298;37.368;127.108;2023-03-14T00:54:25;9.55;;;3.70;;
78908;SDS011;68298;37.368;127.108;2023-03-14T00:56:56;12.55;;;3.50;;
78908;SDS011;68298;37.368;127.108;2023-03-14T00:59:27;11.05;;;3.25;;
78908;SDS011;68298;37.368;127.108;2023-03-14T01:01:57;11.40;;;3.97;;
78908;SDS011;68298;37.368;127.108;2023-03-14T01:04:28;10.65;;;3.33;;
78908;SDS011;68298;37.368;127.108;2023-03-14T01:07:00;10.00;;;4.05;;
78908;SDS011;68298;37.368;127.108;2023-03-14T01:09:31;9.93;;;3.53;;
78908;SDS011;68298;37.368;127.108;2023-03-14T01:12:02;9.25;;;3.72;;
78908;SDS011;68298;37.368;127.108;2023-03-14T01:14:32;11.10;;;3.70;;
78908;SDS011;68298;37.368;127.108;2023-03-14T01:17:03;7.25;;;3.53;;
78908;SDS011;68298;37.368;127.108;2023-03-14T01:19:34;6.60;;;3.42;;
78908;SDS011;68298;37.368;127.108;2023-03-14T01:22:05;7.38;;;3.38;;
78908;SDS011;68298;37.368;127.108;2023-03-14T01:24:37;8.38;;;3.40;;
78908;SDS011;68298;37.368;127.108;2023-03-14T01:27:08;7.78;;;3.35;;
78908;SDS011;68298;37.368;127.108;2023-03-14T01:29:39;7.03;;;3.53;;
78908;SDS011;68298;37.368;127.108;2023-03-14T01:32:09;5.35;;;3.47;;
78908;SDS011;68298;37.368;127.108;2023-03-14T01:34:40;6.78;;;3.78;;
78908;SDS011;68298;37.368;127.108;2023-03-14T01:37:11;6.43;;;3.40;;
78908;SDS011;68298;37.368;127.108;2023-03-14T01:39:42;8.10;;;3.33;;
78908;SDS011;68298;37.368;127.108;2023-03-14T01:42:12;8.32;;;3.30;;
78908;SDS011;68298;37.368;127.108;2023-03-14T01:45:02;6.72;;;3.28;;
78908;SDS011;68298;37.368;127.108;2023-03-14T01:47:32;5.65;;;3.40;;
78908;SDS011;68298;37.368;127.108;2023-03-14T01:50:06;4.80;;;3.17;;
78908;SDS011;68298;37.368;127.108;2023-03-14T01:52:44;8.13;;;3.00;;
78908;SDS011;68298;37.368;127.108;2023-03-14T01:55:22;8.30;;;2.70;;
78908;SDS011;68298;37.368;127.108;2023-03-14T01:57:56;6.13;;;2.58;;
78908;SDS011;68298;37.368;127.108;2023-03-14T02:00:33;10.48;;;2.72;;
78908;SDS011;68298;37.368;127.108;2023-03-14T02:03:11;13.40;;;3.13;;
78908;SDS011;68298;37.368;127.108;2023-03-14T02:05:46;23.23;;;3.50;;
78908;SDS011;68298;37.368;127.108;2023-03-14T02:08:20;88.03;;;7.97;;
78908;SDS011;68298;37.368;127.108;2023-03-14T02:10:57;72.97;;;7.70;;
78908;SDS011;68298;37.368;127.108;2023-03-14T02:14:03;165.48;;;15.32;;
78908;SDS011;68298;37.368;127.108;2023-03-14T02:17:13;237.07;;;21.08;;
78908;SDS011;68298;37.368;127.108;2023-03-14T02:22:54;226.70;;;23.10;;
78908;SDS011;68298;37.368;127.108;2023-03-14T02:25:48;93.25;;;9.75;;
78908;SDS011;68298;37.368;127.108;2023-03-14T02:28:26;40.58;;;6.80;;
78908;SDS011;68298;37.368;127.108;2023-03-14T02:31:00;36.35;;;5.45;;
78908;SDS011;68298;37.368;127.108;2023-03-14T02:33:33;21.50;;;4.35;;
78908;SDS011;68298;37.368;127.108;2023-03-14T02:41:10;12.85;;;3.45;;
78908;SDS011;68298;37.368;127.108;2023-03-14T02:43:47;9.00;;;3.38;;
78908;SDS011;68298;37.368;127.108;2023-03-14T02:46:19;7.90;;;2.83;;
78908;SDS011;68298;37.368;127.108;2023-03-14T02:49:04;6.38;;;3.10;;
78908;SDS011;68298;37.368;127.108;2023-03-14T02:51:40;7.25;;;2.65;;
78908;SDS011;68298;37.368;127.108;2023-03-14T02:54:13;12.15;;;3.80;;
78908;SDS011;68298;37.368;127.108;2023-03-14T02:56:45;8.25;;;2.95;;
78908;SDS011;68298;37.368;127.108;2023-03-14T02:59:16;9.35;;;2.47;;
78908;SDS011;68298;37.368;127.108;2023-03-14T03:01:56;5.07;;;2.47;;
78908;SDS011;68298;37.368;127.108;2023-03-14T03:04:30;6.03;;;2.95;;
78908;SDS011;68298;37.368;127.108;2023-03-14T03:07:01;7.75;;;2.65;;
78908;SDS011;68298;37.368;127.108;2023-03-14T03:09:31;4.18;;;2.25;;
78908;SDS011;68298;37.368;127.108;2023-03-14T03:12:01;4.78;;;2.47;;
78908;SDS011;68298;37.368;127.108;2023-03-14T03:14:32;3.95;;;2.30;;
78908;SDS011;68298;37.368;127.108;2023-03-14T03:17:04;5.22;;;2.50;;
78908;SDS011;68298;37.368;127.108;2023-03-14T03:19:37;8.88;;;2.40;;
78908;SDS011;68298;37.368;127.108;2023-03-14T03:22:10;7.07;;;2.55;;
78908;SDS011;68298;37.368;127.108;2023-03-14T03:24:41;3.60;;;2.10;;
78908;SDS011;68298;37.368;127.108;2023-03-14T03:27:13;3.95;;;2.40;;
78908;SDS011;68298;37.368;127.108;2023-03-14T03:29:44;5.55;;;2.17;;
78908;SDS011;68298;37.368;127.108;2023-03-14T03:32:14;5.18;;;2.28;;
78908;SDS011;68298;37.368;127.108;2023-03-14T03:34:45;3.75;;;2.00;;
78908;SDS011;68298;37.368;127.108;2023-03-14T03:37:16;3.10;;;1.85;;
78908;SDS011;68298;37.368;127.108;2023-03-14T03:39:46;5.22;;;2.03;;
78908;SDS011;68298;37.368;127.108;2023-03-14T03:42:19;5.60;;;1.90;;
78908;SDS011;68298;37.368;127.108;2023-03-14T03:44:50;3.80;;;1.83;;
78908;SDS011;68298;37.368;127.108;2023-03-14T03:47:22;5.22;;;2.03;;
78908;SDS011;68298;37.368;127.108;2023-03-14T03:49:55;5.10;;;1.75;;
78908;SDS011;68298;37.368;127.108;2023-03-14T03:52:26;5.32;;;1.92;;
78908;SDS011;68298;37.368;127.108;2023-03-14T03:54:56;3.35;;;1.90;;
78908;SDS011;68298;37.368;127.108;2023-03-14T03:57:28;4.28;;;2.00;;
78908;SDS011;68298;37.368;127.108;2023-03-14T03:59:58;3.28;;;2.00;;
78908;SDS011;68298;37.368;127.108;2023-03-14T04:02:40;2.97;;;2.00;;
78908;SDS011;68298;37.368;127.108;2023-03-14T04:05:14;2.35;;;1.60;;
78908;SDS011;68298;37.368;127.108;2023-03-14T04:07:52;3.40;;;1.80;;
78908;SDS011;68298;37.368;127.108;2023-03-14T04:10:25;3.25;;;1.88;;
78908;SDS011;68298;37.368;127.108;2023-03-14T04:13:09;3.53;;;1.83;;
78908;SDS011;68298;37.368;127.108;2023-03-14T04:15:42;4.75;;;1.85;;
78908;SDS011;68298;37.368;127.108;2023-03-14T04:18:20;4.72;;;2.10;;
78908;SDS011;68298;37.368;127.108;2023-03-14T04:23:36;4.50;;;2.13;;
78908;SDS011;68298;37.368;127.108;2023-03-14T04:26:07;4.93;;;1.80;;
78908;SDS011;68298;37.368;127.108;2023-03-14T04:28:37;3.00;;;1.77;;
78908;SDS011;68298;37.368;127.108;2023-03-14T04:31:10;3.13;;;1.77;;
78908;SDS011;68298;37.368;127.108;2023-03-14T04:33:42;3.55;;;1.92;;
78908;SDS011;68298;37.368;127.108;2023-03-14T04:36:15;9.38;;;2.30;;
78908;SDS011;68298;37.368;127.108;2023-03-14T04:38:45;6.25;;;1.80;;
78908;SDS011;68298;37.368;127.108;2023-03-14T04:41:19;5.82;;;2.22;;
78908;SDS011;68298;37.368;127.108;2023-03-14T04:43:50;2.92;;;1.98;;
78908;SDS011;68298;37.368;127.108;2023-03-14T04:46:21;3.60;;;2.00;;
78908;SDS011;68298;37.368;127.108;2023-03-14T04:48:52;4.80;;;2.00;;
78908;SDS011;68298;37.368;127.108;2023-03-14T04:51:23;56.45;;;5.47;;
78908;SDS011;68298;37.368;127.108;2023-03-14T04:53:56;93.85;;;7.78;;
78908;SDS011;68298;37.368;127.108;2023-03-14T04:56:27;103.43;;;9.88;;
78908;SDS011;68298;37.368;127.108;2023-03-14T04:58:59;433.30;;;31.63;;
78908;SDS011;68298;37.368;127.108;2023-03-14T05:04:34;303.10;;;22.75;;
78908;SDS011;68298;37.368;127.108;2023-03-14T05:07:30;306.33;;;24.60;;
78908;SDS011;68298;37.368;127.108;2023-03-14T05:10:17;413.67;;;31.45;;
78908;SDS011;68298;37.368;127.108;2023-03-14T05:13:09;491.95;;;41.35;;
78908;SDS011;68298;37.368;127.108;2023-03-14T05:16:03;495.67;;;38.58;;
78908;SDS011;68298;37.368;127.108;2023-03-14T05:18:48;664.05;;;61.88;;
78908;SDS011;68298;37.368;127.108;2023-03-14T05:21:38;539.38;;;50.03;;
78908;SDS011;68298;37.368;127.108;2023-03-14T05:24:28;638.50;;;59.08;;
78908;SDS011;68298;37.368;127.108;2023-03-14T05:27:02;430.63;;;37.67;;
78908;SDS011;68298;37.368;127.108;2023-03-14T05:30:09;304.05;;;26.60;;
78908;SDS011;68298;37.368;127.108;2023-03-14T05:33:06;639.58;;;51.30;;
78908;SDS011;68298;37.368;127.108;2023-03-14T05:35:45;382.02;;;35.63;;
78908;SDS011;68298;37.368;127.108;2023-03-14T05:38:34;300.88;;;28.42;;
78908;SDS011;68298;37.368;127.108;2023-03-14T05:41:23;356.33;;;32.70;;
78908;SDS011;68298;37.368;127.108;2023-03-14T05:44:14;252.38;;;24.00;;
78908;SDS011;68298;37.368;127.108;2023-03-14T05:47:10;220.30;;;22.08;;
78908;SDS011;68298;37.368;127.108;2023-03-14T05:50:12;149.00;;;15.20;;
78908;SDS011;68298;37.368;127.108;2023-03-14T05:52:59;134.43;;;14.32;;
78908;SDS011;68298;37.368;127.108;2023-03-14T05:55:58;184.80;;;14.20;;
78908;SDS011;68298;37.368;127.108;2023-03-14T05:58:47;117.55;;;12.38;;
78908;SDS011;68298;37.368;127.108;2023-03-14T06:01:32;76.28;;;7.45;;
78908;SDS011;68298;37.368;127.108;2023-03-14T06:04:14;43.35;;;5.95;;
78908;SDS011;68298;37.368;127.108;2023-03-14T06:06:50;44.38;;;5.75;;
78908;SDS011;68298;37.368;127.108;2023-03-14T06:09:21;42.45;;;5.75;;
78908;SDS011;68298;37.368;127.108;2023-03-14T06:11:55;33.58;;;4.82;;
78908;SDS011;68298;37.368;127.108;2023-03-14T06:14:29;25.95;;;4.72;;
78908;SDS011;68298;37.368;127.108;2023-03-14T06:17:01;28.00;;;4.97;;
78908;SDS011;68298;37.368;127.108;2023-03-14T06:19:38;20.73;;;3.70;;
78908;SDS011;68298;37.368;127.108;2023-03-14T06:22:10;24.45;;;4.68;;
78908;SDS011;68298;37.368;127.108;2023-03-14T06:24:41;13.07;;;2.60;;
78908;SDS011;68298;37.368;127.108;2023-03-14T06:27:12;16.98;;;3.53;;
78908;SDS011;68298;37.368;127.108;2023-03-14T06:29:43;22.10;;;5.03;;
78908;SDS011;68298;37.368;127.108;2023-03-14T06:32:13;21.63;;;3.80;;
78908;SDS011;68298;37.368;127.108;2023-03-14T06:34:45;19.27;;;3.22;;
78908;SDS011;68298;37.368;127.108;2023-03-14T06:37:15;15.20;;;3.10;;
78908;SDS011;68298;37.368;127.108;2023-03-14T06:39:48;18.38;;;3.13;;
78908;SDS011;68298;37.368;127.108;2023-03-14T06:42:34;15.20;;;2.85;;
78908;SDS011;68298;37.368;127.108;2023-03-14T06:45:04;10.07;;;2.45;;
78908;SDS011;68298;37.368;127.108;2023-03-14T06:47:35;18.45;;;3.13;;
78908;SDS011;68298;37.368;127.108;2023-03-14T06:50:07;17.55;;;3.22;;
78908;SDS011;68298;37.368;127.108;2023-03-14T06:52:40;41.63;;;3.87;;
78908;SDS011;68298;37.368;127.108;2023-03-14T06:55:20;24.02;;;3.42;;
78908;SDS011;68298;37.368;127.108;2023-03-14T06:57:50;15.10;;;2.97;;
78908;SDS011;68298;37.368;127.108;2023-03-14T07:00:21;20.33;;;2.83;;
78908;SDS011;68298;37.368;127.108;2023-03-14T07:02:54;16.83;;;2.67;;
78908;SDS011;68298;37.368;127.108;2023-03-14T07:05:31;16.60;;;3.00;;
78908;SDS011;68298;37.368;127.108;2023-03-14T07:08:02;13.32;;;2.83;;
78908;SDS011;68298;37.368;127.108;2023-03-14T07:10:32;26.90;;;3.80;;
78908;SDS011;68298;37.368;127.108;2023-03-14T07:13:05;14.25;;;2.63;;
78908;SDS011;68298;37.368;127.108;2023-03-14T07:15:47;12.30;;;3.40;;
78908;SDS011;68298;37.368;127.108;2023-03-14T07:18:18;13.50;;;2.65;;
78908;SDS011;68298;37.368;127.108;2023-03-14T07:20:49;14.25;;;3.17;;
78908;SDS011;68298;37.368;127.108;2023-03-14T07:23:19;28.77;;;3.35;;
78908;SDS011;68298;37.368;127.108;2023-03-14T07:25:52;33.30;;;3.70;;
78908;SDS011;68298;37.368;127.108;2023-03-14T07:28:25;20.25;;;3.97;;
78908;SDS011;68298;37.368;127.108;2023-03-14T07:31:17;27.73;;;3.60;;
78908;SDS011;68298;37.368;127.108;2023-03-14T07:33:49;21.13;;;3.10;;
78908;SDS011;68298;37.368;127.108;2023-03-14T07:36:21;15.45;;;2.95;;
78908;SDS011;68298;37.368;127.108;2023-03-14T07:38:51;21.52;;;2.97;;
78908;SDS011;68298;37.368;127.108;2023-03-14T07:41:33;23.55;;;3.30;;
78908;SDS011;68298;37.368;127.108;2023-03-14T07:44:30;19.92;;;3.45;;
78908;SDS011;68298;37.368;127.108;2023-03-14T07:47:00;28.33;;;4.10;;
78908;SDS011;68298;37.368;127.108;2023-03-14T07:49:31;19.08;;;3.60;;
78908;SDS011;68298;37.368;127.108;2023-03-14T07:52:02;18.17;;;3.10;;
78908;SDS011;68298;37.368;127.108;2023-03-14T07:54:32;12.50;;;2.97;;
78908;SDS011;68298;37.368;127.108;2023-03-14T07:57:03;16.70;;;2.60;;
78908;SDS011;68298;37.368;127.108;2023-03-14T07:59:33;14.32;;;2.70;;
78908;SDS011;68298;37.368;127.108;2023-03-14T08:02:04;10.57;;;2.65;;
78908;SDS011;68298;37.368;127.108;2023-03-14T08:04:40;18.30;;;2.70;;
78908;SDS011;68298;37.368;127.108;2023-03-14T08:07:10;13.93;;;2.42;;
78908;SDS011;68298;37.368;127.108;2023-03-14T08:09:41;8.38;;;2.40;;
78908;SDS011;68298;37.368;127.108;2023-03-14T08:12:11;15.32;;;3.20;;
78908;SDS011;68298;37.368;127.108;2023-03-14T08:14:42;10.35;;;2.72;;
78908;SDS011;68298;37.368;127.108;2023-03-14T08:17:12;6.88;;;2.10;;
78908;SDS011;68298;37.368;127.108;2023-03-14T08:19:43;10.45;;;2.65;;
78908;SDS011;68298;37.368;127.108;2023-03-14T08:22:13;7.72;;;2.42;;
78908;SDS011;68298;37.368;127.108;2023-03-14T08:24:46;8.35;;;2.22;;
78908;SDS011;68298;37.368;127.108;2023-03-14T08:27:16;8.88;;;2.17;;
78908;SDS011;68298;37.368;127.108;2023-03-14T08:29:47;8.73;;;2.88;;
78908;SDS011;68298;37.368;127.108;2023-03-14T08:32:17;6.68;;;2.70;;
78908;SDS011;68298;37.368;127.108;2023-03-14T08:34:49;10.63;;;2.45;;
78908;SDS011;68298;37.368;127.108;2023-03-14T08:37:20;11.65;;;2.40;;
78908;SDS011;68298;37.368;127.108;2023-03-14T08:39:53;9.00;;;2.53;;
78908;SDS011;68298;37.368;127.108;2023-03-14T08:42:24;5.78;;;2.28;;
78908;SDS011;68298;37.368;127.108;2023-03-14T08:44:54;11.20;;;2.70;;
78908;SDS011;68298;37.368;127.108;2023-03-14T08:47:25;9.75;;;3.22;;
78908;SDS011;68298;37.368;127.108;2023-03-14T08:49:55;6.85;;;2.28;;
78908;SDS011;68298;37.368;127.108;2023-03-14T08:52:26;7.00;;;2.03;;
78908;SDS011;68298;37.368;127.108;2023-03-14T08:54:56;9.55;;;2.30;;
78908;SDS011;68298;37.368;127.108;2023-03-14T08:57:27;7.95;;;2.22;;
78908;SDS011;68298;37.368;127.108;2023-03-14T08:59:58;7.50;;;2.55;;
78908;SDS011;68298;37.368;127.108;2023-03-14T09:02:29;7.63;;;1.80;;
78908;SDS011;68298;37.368;127.108;2023-03-14T09:04:59;7.43;;;1.90;;
78908;SDS011;68298;37.368;127.108;2023-03-14T09:07:29;5.20;;;2.17;;
78908;SDS011;68298;37.368;127.108;2023-03-14T09:10:00;5.90;;;2.08;;
78908;SDS011;68298;37.368;127.108;2023-03-14T09:12:30;8.60;;;2.42;;
78908;SDS011;68298;37.368;127.108;2023-03-14T09:15:01;8.45;;;2.17;;
78908;SDS011;68298;37.368;127.108;2023-03-14T09:17:31;8.85;;;1.90;;
78908;SDS011;68298;37.368;127.108;2023-03-14T09:20:03;7.72;;;2.10;;
78908;SDS011;68298;37.368;127.108;2023-03-14T09:22:37;5.13;;;2.20;;
78908;SDS011;68298;37.368;127.108;2023-03-14T09:25:09;3.50;;;1.63;;
78908;SDS011;68298;37.368;127.108;2023-03-14T09:27:39;8.68;;;2.38;;
78908;SDS011;68298;37.368;127.108;2023-03-14T09:30:11;6.38;;;2.03;;
78908;SDS011;68298;37.368;127.108;2023-03-14T09:32:42;6.72;;;1.98;;
78908;SDS011;68298;37.368;127.108;2023-03-14T09:35:13;4.20;;;1.90;;
78908;SDS011;68298;37.368;127.108;2023-03-14T09:37:44;9.73;;;2.30;;
78908;SDS011;68298;37.368;127.108;2023-03-14T09:40:16;8.82;;;2.30;;
78908;SDS011;68298;37.368;127.108;2023-03-14T09:45:42;5.82;;;2.00;;
78908;SDS011;68298;37.368;127.108;2023-03-14T09:48:15;9.07;;;1.73;;
78908;SDS011;68298;37.368;127.108;2023-03-14T09:50:56;8.05;;;1.77;;
78908;SDS011;68298;37.368;127.108;2023-03-14T09:53:35;6.05;;;1.75;;
78908;SDS011;68298;37.368;127.108;2023-03-14T09:58:55;5.47;;;2.05;;
78908;SDS011;68298;37.368;127.108;2023-03-14T10:01:32;6.15;;;2.33;;
78908;SDS011;68298;37.368;127.108;2023-03-14T10:04:10;6.03;;;1.55;;
78908;SDS011;68298;37.368;127.108;2023-03-14T10:06:45;5.30;;;1.67;;
78908;SDS011;68298;37.368;127.108;2023-03-14T10:09:21;5.35;;;1.95;;
78908;SDS011;68298;37.368;127.108;2023-03-14T10:11:56;4.35;;;1.83;;
78908;SDS011;68298;37.368;127.108;2023-03-14T10:14:36;7.35;;;1.63;;
78908;SDS011;68298;37.368;127.108;2023-03-14T10:17:14;2.92;;;1.80;;
78908;SDS011;68298;37.368;127.108;2023-03-14T10:19:53;6.18;;;2.05;;
78908;SDS011;68298;37.368;127.108;2023-03-14T10:22:30;4.95;;;1.92;;
78908;SDS011;68298;37.368;127.108;2023-03-14T10:25:03;3.78;;;1.55;;
78908;SDS011;68298;37.368;127.108;2023-03-14T10:27:36;5.28;;;2.20;;
78908;SDS011;68298;37.368;127.108;2023-03-14T10:30:14;4.72;;;1.85;;
78908;SDS011;68298;37.368;127.108;2023-03-14T10:33:07;5.75;;;1.73;;
78908;SDS011;68298;37.368;127.108;2023-03-14T10:35:39;2.72;;;1.23;;
78908;SDS011;68298;37.368;127.108;2023-03-14T10:38:16;3.92;;;1.67;;
78908;SDS011;68298;37.368;127.108;2023-03-14T10:40:48;4.55;;;1.75;;
78908;SDS011;68298;37.368;127.108;2023-03-14T10:43:22;4.55;;;1.85;;
78908;SDS011;68298;37.368;127.108;2023-03-14T10:46:15;4.82;;;2.03;;
78908;SDS011;68298;37.368;127.108;2023-03-14T10:49:06;4.85;;;1.67;;
78908;SDS011;68298;37.368;127.108;2023-03-14T10:51:36;4.43;;;1.70;;
78908;SDS011;68298;37.368;127.108;2023-03-14T10:54:15;6.63;;;2.08;;
78908;SDS011;68298;37.368;127.108;2023-03-14T10:56:59;4.50;;;1.90;;
78908;SDS011;68298;37.368;127.108;2023-03-14T10:59:38;3.03;;;1.50;;
78908;SDS011;68298;37.368;127.108;2023-03-14T11:05:05;4.45;;;1.50;;
78908;SDS011;68298;37.368;127.108;2023-03-14T11:07:49;3.72;;;1.33;;
78908;SDS011;68298;37.368;127.108;2023-03-14T11:10:34;5.10;;;2.03;;
78908;SDS011;68298;37.368;127.108;2023-03-14T11:15:45;4.18;;;1.80;;
78908;SDS011;68298;37.368;127.108;2023-03-14T11:38:40;2.92;;;1.65;;
78908;SDS011;68298;37.368;127.108;2023-03-14T11:41:38;5.22;;;1.95;;
78908;SDS011;68298;37.368;127.108;2023-03-14T11:44:32;4.72;;;1.90;;
78908;SDS011;68298;37.368;127.108;2023-03-14T11:52:37;5.68;;;1.60;;
78908;SDS011;68298;37.368;127.108;2023-03-14T11:58:13;5.20;;;1.67;;
78908;SDS011;68298;37.368;127.108;2023-03-14T12:00:46;3.65;;;1.50;;
78908;SDS011;68298;37.368;127.108;2023-03-14T12:09:03;5.15;;;1.77;;
78908;SDS011;68298;37.368;127.108;2023-03-14T12:11:36;3.43;;;1.50;;
78908;SDS011;68298;37.368;127.108;2023-03-14T12:14:46;4.00;;;1.40;;
78908;SDS011;68298;37.368;127.108;2023-03-14T12:20:02;5.18;;;1.50;;
78908;SDS011;68298;37.368;127.108;2023-03-14T12:22:36;5.82;;;1.95;;
78908;SDS011;68298;37.368;127.108;2023-03-14T12:30:40;5.03;;;2.00;;
78908;SDS011;68298;37.368;127.108;2023-03-14T12:35:48;3.42;;;1.88;;
78908;SDS011;68298;37.368;127.108;2023-03-14T12:44:47;4.80;;;2.08;;
78908;SDS011;68298;37.368;127.108;2023-03-14T12:47:00;3.10;;;1.63;;
78908;SDS011;68298;37.368;127.108;2023-03-14T12:49:50;4.32;;;1.83;;
78908;SDS011;68298;37.368;127.108;2023-03-14T12:53:10;4.35;;;1.88;;
78908;SDS011;68298;37.368;127.108;2023-03-14T12:55:45;2.88;;;1.67;;
78908;SDS011;68298;37.368;127.108;2023-03-14T13:01:28;3.67;;;1.73;;
78908;SDS011;68298;37.368;127.108;2023-03-14T13:04:04;3.47;;;1.67;;
78908;SDS011;68298;37.368;127.108;2023-03-14T13:07:00;5.18;;;1.50;;
78908;SDS011;68298;37.368;127.108;2023-03-14T13:12:03;5.32;;;1.60;;
78908;SDS011;68298;37.368;127.108;2023-03-14T13:14:41;6.53;;;2.17;;
78908;SDS011;68298;37.368;127.108;2023-03-14T13:17:26;6.65;;;1.88;;
78908;SDS011;68298;37.368;127.108;2023-03-14T13:20:05;5.25;;;1.90;;
78908;SDS011;68298;37.368;127.108;2023-03-14T13:23:00;5.38;;;1.95;;
78908;SDS011;68298;37.368;127.108;2023-03-14T13:25:34;3.78;;;1.90;;
78908;SDS011;68298;37.368;127.108;2023-03-14T13:28:05;3.35;;;1.60;;
78908;SDS011;68298;37.368;127.108;2023-03-14T13:30:40;3.10;;;1.60;;
78908;SDS011;68298;37.368;127.108;2023-03-14T13:33:16;4.40;;;1.83;;
78908;SDS011;68298;37.368;127.108;2023-03-14T13:38:25;3.50;;;1.90;;
78908;SDS011;68298;37.368;127.108;2023-03-14T13:41:00;4.90;;;1.92;;
78908;SDS011;68298;37.368;127.108;2023-03-14T13:43:36;4.95;;;1.80;;
78908;SDS011;68298;37.368;127.108;2023-03-14T13:46:20;4.80;;;1.88;;
78908;SDS011;68298;37.368;127.108;2023-03-14T13:49:04;6.07;;;2.30;;
78908;SDS011;68298;37.368;127.108;2023-03-14T13:51:38;4.67;;;1.87;;
78908;SDS011;68298;37.368;127.108;2023-03-14T13:54:16;4.68;;;1.60;;
78908;SDS011;68298;37.368;127.108;2023-03-14T13:56:49;4.07;;;2.13;;
78908;SDS011;68298;37.368;127.108;2023-03-14T13:59:30;4.25;;;1.92;;
78908;SDS011;68298;37.368;127.108;2023-03-14T14:02:09;3.80;;;1.95;;
78908;SDS011;68298;37.368;127.108;2023-03-14T14:04:45;4.00;;;2.10;;
78908;SDS011;68298;37.368;127.108;2023-03-14T14:07:16;4.40;;;1.77;;
78908;SDS011;68298;37.368;127.108;2023-03-14T14:09:48;3.58;;;1.70;;
78908;SDS011;68298;37.368;127.108;2023-03-14T14:15:00;4.20;;;2.38;;
78908;SDS011;68298;37.368;127.108;2023-03-14T14:17:39;4.93;;;2.30;;
78908;SDS011;68298;37.368;127.108;2023-03-14T14:23:14;5.00;;;2.22;;
78908;SDS011;68298;37.368;127.108;2023-03-14T14:25:49;3.15;;;2.00;;
78908;SDS011;68298;37.368;127.108;2023-03-14T14:28:30;3.78;;;2.08;;
78908;SDS011;68298;37.368;127.108;2023-03-14T14:36:27;5.13;;;2.25;;
78908;SDS011;68298;37.368;127.108;2023-03-14T14:39:18;6.30;;;2.38;;
78908;SDS011;68298;37.368;127.108;2023-03-14T14:41:53;7.20;;;2.30;;
78908;SDS011;68298;37.368;127.108;2023-03-14T14:44:28;5.57;;;2.38;;
78908;SDS011;68298;37.368;127.108;2023-03-14T14:47:04;5.07;;;2.05;;
78908;SDS011;68298;37.368;127.108;2023-03-14T14:49:35;6.75;;;2.67;;
78908;SDS011;68298;37.368;127.108;2023-03-14T14:57:21;7.20;;;2.55;;
78908;SDS011;68298;37.368;127.108;2023-03-14T15:00:00;4.93;;;2.22;;
78908;SDS011;68298;37.368;127.108;2023-03-14T15:02:37;7.22;;;3.08;;
78908;SDS011;68298;37.368;127.108;2023-03-14T15:07:46;4.60;;;2.28;;
78908;SDS011;68298;37.368;127.108;2023-03-14T15:10:17;5.00;;;2.47;;
78908;SDS011;68298;37.368;127.108;2023-03-14T15:12:50;4.35;;;1.95;;
78908;SDS011;68298;37.368;127.108;2023-03-14T15:15:21;5.45;;;2.30;;
78908;SDS011;68298;37.368;127.108;2023-03-14T15:17:52;4.88;;;2.20;;
78908;SDS011;68298;37.368;127.108;2023-03-14T15:20:22;6.68;;;2.80;;
78908;SDS011;68298;37.368;127.108;2023-03-14T15:22:53;5.80;;;2.35;;
78908;SDS011;68298;37.368;127.108;2023-03-14T15:25:24;4.93;;;2.42;;
78908;SDS011;68298;37.368;127.108;2023-03-14T15:30:51;5.32;;;2.28;;
78908;SDS011;68298;37.368;127.108;2023-03-14T15:33:23;6.13;;;2.80;;
78908;SDS011;68298;37.368;127.108;2023-03-14T15:35:55;5.22;;;2.70;;
78908;SDS011;68298;37.368;127.108;2023-03-14T15:38:26;4.82;;;2.42;;
78908;SDS011;68298;37.368;127.108;2023-03-14T15:40:57;6.25;;;2.38;;
78908;SDS011;68298;37.368;127.108;2023-03-14T15:43:27;6.90;;;2.58;;
78908;SDS011;68298;37.368;127.108;2023-03-14T15:45:58;4.95;;;2.35;;
78908;SDS011;68298;37.368;127.108;2023-03-14T15:48:28;5.10;;;2.35;;
78908;SDS011;68298;37.368;127.108;2023-03-14T15:50:58;5.00;;;2.67;;
78908;SDS011;68298;37.368;127.108;2023-03-14T15:53:30;5.70;;;2.25;;
78908;SDS011;68298;37.368;127.108;2023-03-14T15:56:00;5.55;;;2.85;;
78908;SDS011;68298;37.368;127.108;2023-03-14T15:58:31;5.53;;;2.03;;
78908;SDS011;68298;37.368;127.108;2023-03-14T16:01:05;5.40;;;2.50;;
78908;SDS011;68298;37.368;127.108;2023-03-14T16:03:38;4.82;;;2.25;;
78908;SDS011;68298;37.368;127.108;2023-03-14T16:06:08;5.70;;;2.60;;
78908;SDS011;68298;37.368;127.108;2023-03-14T16:08:40;3.38;;;2.42;;
78908;SDS011;68298;37.368;127.108;2023-03-14T16:11:14;7.15;;;2.85;;
78908;SDS011;68298;37.368;127.108;2023-03-14T16:13:49;5.20;;;2.42;;
78908;SDS011;68298;37.368;127.108;2023-03-14T16:16:19;5.78;;;2.85;;
78908;SDS011;68298;37.368;127.108;2023-03-14T16:18:50;4.22;;;2.63;;
78908;SDS011;68298;37.368;127.108;2023-03-14T16:21:20;4.82;;;2.65;;
78908;SDS011;68298;37.368;127.108;2023-03-14T16:23:52;6.03;;;2.45;;
78908;SDS011;68298;37.368;127.108;2023-03-14T16:26:23;7.43;;;2.92;;
78908;SDS011;68298;37.368;127.108;2023-03-14T16:28:53;5.10;;;2.60;;
78908;SDS011;68298;37.368;127.108;2023-03-14T16:31:24;5.28;;;2.78;;
78908;SDS011;68298;37.368;127.108;2023-03-14T16:33:55;4.75;;;2.50;;
78908;SDS011;68298;37.368;127.108;2023-03-14T16:36:32;3.70;;;2.63;;
78908;SDS011;68298;37.368;127.108;2023-03-14T16:39:02;4.88;;;2.58;;
78908;SDS011;68298;37.368;127.108;2023-03-14T16:41:34;3.22;;;2.45;;
78908;SDS011;68298;37.368;127.108;2023-03-14T16:44:05;4.93;;;2.33;;
78908;SDS011;68298;37.368;127.108;2023-03-14T16:46:35;4.57;;;2.60;;
78908;SDS011;68298;37.368;127.108;2023-03-14T16:49:06;7.88;;;3.03;;